Time;durP1;ratioP1;P1;durP2;ratioP2;P2;SDS_P1;SDS_P2;PMS_P1;PMS_P2;Temp;Humidity;BMP_temperature;BMP_pressure;BME280_temperature;BME280_humidity;BME280_pressure;Samples;Min_cycle;Max_cycle;Signal;HPM_P1;HPM_P2
2021/03/29 00:00:50;;;;;;;28.80;18.83;;;;;;;;;;777284;179;913617;-71
2021/03/29 00:03:16;;;;;;;36.33;19.42;;;;;;;;;;776691;179;919107;-71
2021/03/29 00:05:42;;;;;;;33.97;19.97;;;;;;;;;;775489;179;919262;-70
2021/03/29 00:08:12;;;;;;;28.70;18.27;;;;;;;;;;772991;179;920199;-70
2021/03/29 00:10:38;;;;;;;30.83;18.07;;;;;;;;;;777500;179;919391;-70
2021/03/29 00:13:03;;;;;;;41.85;17.55;;;;;;;;;;776000;179;916431;-70
2021/03/29 00:15:29;;;;;;;31.10;19.43;;;;;;;;;;768535;179;3786178;-70
2021/03/29 00:17:55;;;;;;;36.57;20.87;;;;;;;;;;776996;179;1028201;-71
2021/03/29 00:20:22;;;;;;;34.33;19.73;;;;;;;;;;780160;179;919094;-70
2021/03/29 00:22:48;;;;;;;32.17;17.00;;;;;;;;;;778872;179;919236;-70
2021/03/29 00:25:13;;;;;;;35.17;18.77;;;;;;;;;;777611;179;919649;-71
2021/03/29 00:27:39;;;;;;;29.50;19.98;;;;;;;;;;775613;179;937043;-71
2021/03/29 00:30:06;;;;;;;32.10;19.10;;;;;;;;;;775400;179;918753;-70
2021/03/29 00:32:32;;;;;;;33.03;18.90;;;;;;;;;;782369;179;920628;-72
2021/03/29 00:34:57;;;;;;;37.23;19.23;;;;;;;;;;774091;179;921073;-70
2021/03/29 00:37:23;;;;;;;32.70;18.15;;;;;;;;;;773037;181;1126216;-71
2021/03/29 00:39:49;;;;;;;46.50;19.03;;;;;;;;;;781105;179;943220;-71
2021/03/29 00:42:16;;;;;;;29.37;18.47;;;;;;;;;;781016;177;915607;-71
2021/03/29 00:44:41;;;;;;;29.70;18.80;;;;;;;;;;778491;179;992879;-72
2021/03/29 00:47:07;;;;;;;33.63;18.90;;;;;;;;;;783704;179;920182;-71
2021/03/29 00:49:33;;;;;;;32.70;17.73;;;;;;;;;;776229;179;938370;-70
2021/03/29 00:51:58;;;;;;;28.90;18.05;;;;;;;;;;774857;179;1665980;-72
2021/03/29 00:54:26;;;;;;;27.20;16.83;;;;;;;;;;781866;179;919223;-70
2021/03/29 00:56:50;;;;;;;31.10;18.73;;;;;;;;;;768485;180;919014;-71
2021/03/29 00:59:16;;;;;;;40.50;21.80;;;;;;;;;;773486;179;919652;-71
2021/03/29 01:01:42;;;;;;;25.77;18.90;;;;;;;;;;778524;179;925944;-71
2021/03/29 01:04:08;;;;;;;31.30;18.47;;;;;;;;;;784671;179;919180;-71
2021/03/29 01:06:34;;;;;;;30.63;16.70;;;;;;;;;;776451;179;1023314;-71
2021/03/29 01:09:04;;;;;;;28.40;17.73;;;;;;;;;;779305;179;919415;-71
2021/03/29 01:11:29;;;;;;;31.87;20.07;;;;;;;;;;780286;179;918764;-71
2021/03/29 01:13:55;;;;;;;28.80;17.57;;;;;;;;;;777752;179;918965;-71
2021/03/29 01:16:21;;;;;;;27.10;17.90;;;;;;;;;;777236;179;918725;-71
2021/03/29 01:18:47;;;;;;;29.07;18.67;;;;;;;;;;782495;179;918683;-71
2021/03/29 01:21:29;;;;;;;26.90;17.25;;;;;;;;;;774618;179;918796;-71
2021/03/29 01:23:55;;;;;;;32.55;18.80;;;;;;;;;;772940;179;918910;-72
2021/03/29 01:26:32;;;;;;;29.00;18.58;;;;;;;;;;773261;179;1238519;-71
2021/03/29 01:28:58;;;;;;;31.67;18.77;;;;;;;;;;776075;179;919262;-71
2021/03/29 01:31:24;;;;;;;26.40;18.43;;;;;;;;;;781284;179;918305;-71
2021/03/29 01:33:50;;;;;;;24.27;15.53;;;;;;;;;;777768;179;919552;-72
2021/03/29 01:36:15;;;;;;;31.20;19.05;;;;;;;;;;775871;179;917173;-73
2021/03/29 01:38:41;;;;;;;33.17;17.50;;;;;;;;;;778230;179;919457;-71
2021/03/29 01:41:07;;;;;;;30.43;18.70;;;;;;;;;;776248;179;915928;-72
2021/03/29 01:43:33;;;;;;;33.70;18.40;;;;;;;;;;777573;179;920118;-72
2021/03/29 01:45:59;;;;;;;30.93;18.87;;;;;;;;;;773289;179;1145169;-75
2021/03/29 01:48:25;;;;;;;32.47;18.53;;;;;;;;;;782373;179;918157;-72
2021/03/29 01:50:53;;;;;;;27.20;18.13;;;;;;;;;;777638;179;919567;-72
2021/03/29 01:53:16;;;;;;;29.17;18.27;;;;;;;;;;775771;177;918457;-72
2021/03/29 01:55:42;;;;;;;31.17;19.43;;;;;;;;;;786035;179;918710;-72
2021/03/29 01:58:08;;;;;;;31.10;18.77;;;;;;;;;;776790;179;919287;-71
2021/03/29 02:00:34;;;;;;;28.43;18.70;;;;;;;;;;779795;179;919970;-71
2021/03/29 02:03:00;;;;;;;34.50;18.20;;;;;;;;;;781758;179;918755;-71
2021/03/29 02:05:26;;;;;;;29.30;18.60;;;;;;;;;;778791;179;919099;-72
2021/03/29 02:07:52;;;;;;;34.70;18.60;;;;;;;;;;776445;179;927381;-71
2021/03/29 02:10:17;;;;;;;35.67;19.17;;;;;;;;;;778282;179;920369;-70
2021/03/29 02:12:43;;;;;;;30.87;16.53;;;;;;;;;;776980;179;1017237;-70
2021/03/29 02:15:10;;;;;;;32.93;18.10;;;;;;;;;;778243;179;918364;-71
2021/03/29 02:17:35;;;;;;;31.10;18.30;;;;;;;;;;775582;179;918769;-71
2021/03/29 02:20:02;;;;;;;31.97;18.63;;;;;;;;;;781333;179;919013;-71
2021/03/29 02:22:27;;;;;;;32.17;18.20;;;;;;;;;;774382;179;918491;-70
2021/03/29 02:24:53;;;;;;;35.93;19.20;;;;;;;;;;777378;179;919490;-71
2021/03/29 02:27:19;;;;;;;36.70;18.67;;;;;;;;;;780441;180;918775;-70
2021/03/29 02:29:45;;;;;;;34.00;17.13;;;;;;;;;;771599;179;1276528;-70
2021/03/29 02:32:11;;;;;;;32.00;18.23;;;;;;;;;;775116;179;921554;-70
2021/03/29 02:34:37;;;;;;;34.00;18.93;;;;;;;;;;779646;179;918466;-71
2021/03/29 02:37:03;;;;;;;32.53;19.90;;;;;;;;;;777577;180;919428;-71
2021/03/29 02:39:28;;;;;;;31.07;19.10;;;;;;;;;;774347;179;918203;-71
2021/03/29 02:41:54;;;;;;;37.63;21.07;;;;;;;;;;775707;179;918773;-71
2021/03/29 02:44:20;;;;;;;34.90;22.93;;;;;;;;;;782465;179;918819;-71
2021/03/29 02:46:46;;;;;;;41.67;20.27;;;;;;;;;;776574;179;921991;-70
2021/03/29 02:49:13;;;;;;;37.50;19.10;;;;;;;;;;775095;179;920086;-71
2021/03/29 02:51:39;;;;;;;31.90;17.30;;;;;;;;;;782345;179;918489;-71
2021/03/29 02:54:05;;;;;;;32.27;20.40;;;;;;;;;;777297;179;894154;-71
2021/03/29 02:56:31;;;;;;;33.53;20.17;;;;;;;;;;778009;179;919013;-70
2021/03/29 02:58:57;;;;;;;28.12;17.60;;;;;;;;;;781974;179;918424;-71
2021/03/29 03:01:23;;;;;;;27.90;18.47;;;;;;;;;;778955;179;919163;-71
2021/03/29 03:03:51;;;;;;;41.92;19.48;;;;;;;;;;775926;178;923549;-71
2021/03/29 03:06:17;;;;;;;28.20;17.70;;;;;;;;;;779462;178;918907;-69
2021/03/29 03:08:43;;;;;;;36.80;20.07;;;;;;;;;;785137;179;916721;-71
2021/03/29 03:11:10;;;;;;;42.13;20.27;;;;;;;;;;778356;179;916695;-71
2021/03/29 03:13:35;;;;;;;44.60;21.17;;;;;;;;;;778262;179;918633;-70
2021/03/29 03:16:01;;;;;;;40.40;20.65;;;;;;;;;;781692;179;962250;-69
2021/03/29 03:18:27;;;;;;;32.43;20.73;;;;;;;;;;780301;179;919197;-71
2021/03/29 03:20:53;;;;;;;37.33;20.33;;;;;;;;;;775200;179;919000;-70
2021/03/29 03:23:19;;;;;;;38.00;20.40;;;;;;;;;;781965;179;918249;-70
2021/03/29 03:25:45;;;;;;;34.93;20.70;;;;;;;;;;775068;179;919393;-70
2021/03/29 03:28:11;;;;;;;33.83;19.27;;;;;;;;;;778298;179;919219;-70
2021/03/29 03:30:37;;;;;;;31.47;18.40;;;;;;;;;;774501;179;918842;-70
2021/03/29 03:33:03;;;;;;;41.67;20.17;;;;;;;;;;783463;179;918613;-70
2021/03/29 03:35:29;;;;;;;37.63;20.40;;;;;;;;;;774307;179;963694;-70
2021/03/29 03:38:14;;;;;;;37.55;21.05;;;;;;;;;;779135;179;918694;-70
2021/03/29 03:40:39;;;;;;;34.27;19.10;;;;;;;;;;773262;179;918742;-71
2021/03/29 03:43:05;;;;;;;36.73;19.80;;;;;;;;;;781728;179;919168;-70
2021/03/29 03:45:33;;;;;;;31.90;20.50;;;;;;;;;;776293;179;919728;-69
2021/03/29 03:47:59;;;;;;;34.20;19.93;;;;;;;;;;775156;179;919627;-71
2021/03/29 03:50:25;;;;;;;33.13;19.77;;;;;;;;;;780677;179;919768;-71
2021/03/29 03:52:51;;;;;;;37.60;21.77;;;;;;;;;;776311;179;920010;-71
2021/03/29 03:55:16;;;;;;;34.63;19.80;;;;;;;;;;782001;179;919779;-69
2021/03/29 03:57:42;;;;;;;29.43;18.00;;;;;;;;;;772953;179;1451719;-72
2021/03/29 04:00:10;;;;;;;39.20;19.47;;;;;;;;;;782942;179;915373;-69
2021/03/29 04:02:35;;;;;;;36.60;21.50;;;;;;;;;;776665;179;918846;-69
2021/03/29 04:05:01;;;;;;;39.10;19.13;;;;;;;;;;776367;179;920031;-70
2021/03/29 04:07:27;;;;;;;26.93;18.63;;;;;;;;;;778097;179;919516;-69
2021/03/29 04:09:57;;;;;;;34.77;19.53;;;;;;;;;;776559;179;919258;-70
2021/03/29 04:12:19;;;;;;;30.43;17.57;;;;;;;;;;774623;179;1011953;-69
2021/03/29 04:14:45;;;;;;;36.40;19.47;;;;;;;;;;782950;179;898963;-69
2021/03/29 04:17:10;;;;;;;35.70;20.07;;;;;;;;;;779260;177;915573;-69
2021/03/29 04:19:37;;;;;;;36.43;18.60;;;;;;;;;;780346;179;918786;-70
2021/03/29 04:22:03;;;;;;;42.33;20.03;;;;;;;;;;778700;179;992376;-67
2021/03/29 04:24:29;;;;;;;36.37;20.43;;;;;;;;;;791286;176;917264;-71
2021/03/29 04:26:55;;;;;;;34.53;19.77;;;;;;;;;;777106;179;919685;-69
2021/03/29 04:29:20;;;;;;;30.57;18.90;;;;;;;;;;774809;179;917941;-70
2021/03/29 04:31:46;;;;;;;32.13;19.00;;;;;;;;;;782164;179;1021970;-69
2021/03/29 04:34:12;;;;;;;34.43;17.80;;;;;;;;;;774831;179;924934;-70
2021/03/29 04:36:38;;;;;;;32.45;19.90;;;;;;;;;;776793;179;918839;-69
2021/03/29 04:39:04;;;;;;;35.03;19.27;;;;;;;;;;781403;179;922340;-69
2021/03/29 04:41:30;;;;;;;30.53;18.63;;;;;;;;;;780992;179;919417;-70
2021/03/29 04:43:56;;;;;;;31.87;20.35;;;;;;;;;;775881;179;919241;-69
2021/03/29 04:46:22;;;;;;;29.50;18.43;;;;;;;;;;782641;179;920523;-69
2021/03/29 04:48:48;;;;;;;42.23;20.60;;;;;;;;;;774383;179;919607;-68
2021/03/29 04:51:14;;;;;;;28.90;18.33;;;;;;;;;;778262;179;919991;-69
2021/03/29 04:53:39;;;;;;;35.97;18.40;;;;;;;;;;774191;179;919141;-69
2021/03/29 04:56:06;;;;;;;37.07;20.50;;;;;;;;;;781451;179;918447;-69
2021/03/29 04:58:32;;;;;;;41.67;19.00;;;;;;;;;;778019;179;918801;-69
2021/03/29 05:00:57;;;;;;;30.73;20.17;;;;;;;;;;779961;179;918584;-68
2021/03/29 05:03:23;;;;;;;33.10;19.70;;;;;;;;;;784649;179;617581;-69
2021/03/29 05:05:49;;;;;;;28.17;18.33;;;;;;;;;;778030;179;1040798;-69
2021/03/29 05:08:15;;;;;;;35.83;19.87;;;;;;;;;;777439;179;935296;-68
2021/03/29 05:10:41;;;;;;;35.73;19.30;;;;;;;;;;780145;179;918852;-67
2021/03/29 05:13:07;;;;;;;27.93;17.93;;;;;;;;;;779449;179;629688;-67
2021/03/29 05:15:33;;;;;;;45.93;18.17;;;;;;;;;;779163;179;913315;-70
2021/03/29 05:17:58;;;;;;;34.30;20.10;;;;;;;;;;780076;179;1209266;-66
2021/03/29 05:20:24;;;;;;;35.27;19.20;;;;;;;;;;773573;179;919536;-67
2021/03/29 05:22:50;;;;;;;47.50;31.30;;;;;;;;;;780527;179;918755;-67
2021/03/29 05:25:16;;;;;;;104.50;58.70;;;;;;;;;;778498;179;903232;-66
2021/03/29 05:27:42;;;;;;;84.67;48.00;;;;;;;;;;787540;177;919511;-66
2021/03/29 05:30:08;;;;;;;59.63;31.27;;;;;;;;;;778780;179;912668;-66
2021/03/29 05:32:34;;;;;;;37.23;21.77;;;;;;;;;;782078;179;919097;-65
2021/03/29 05:35:01;;;;;;;40.40;22.73;;;;;;;;;;780575;179;919399;-67
2021/03/29 05:37:26;;;;;;;36.70;21.43;;;;;;;;;;777024;179;919180;-65
2021/03/29 05:39:55;;;;;;;40.33;19.77;;;;;;;;;;778743;179;918873;-66
2021/03/29 05:42:21;;;;;;;33.60;20.50;;;;;;;;;;784636;179;933850;-66
2021/03/29 05:44:47;;;;;;;31.00;19.53;;;;;;;;;;778841;179;919578;-66
2021/03/29 05:47:12;;;;;;;33.90;21.33;;;;;;;;;;773123;179;1534293;-66
2021/03/29 05:49:38;;;;;;;37.93;20.43;;;;;;;;;;775788;179;918674;-64
2021/03/29 05:52:04;;;;;;;40.50;21.73;;;;;;;;;;778899;179;919513;-66
2021/03/29 05:54:30;;;;;;;39.90;22.00;;;;;;;;;;774871;179;1296710;-65
2021/03/29 05:56:56;;;;;;;38.63;20.10;;;;;;;;;;779930;179;627132;-66
2021/03/29 05:59:25;;;;;;;28.50;17.37;;;;;;;;;;785125;179;638382;-64
2021/03/29 06:01:49;;;;;;;90.77;45.13;;;;;;;;;;778787;179;636491;-66
2021/03/29 06:04:14;;;;;;;46.27;22.50;;;;;;;;;;779976;179;630022;-65
2021/03/29 06:06:40;;;;;;;34.57;22.00;;;;;;;;;;789685;179;614026;-65
2021/03/29 06:09:06;;;;;;;53.90;33.97;;;;;;;;;;783625;179;632723;-64
2021/03/29 06:11:32;;;;;;;39.50;22.90;;;;;;;;;;779041;179;629627;-63
2021/03/29 06:14:04;;;;;;;53.03;26.57;;;;;;;;;;784138;179;611141;-63
2021/03/29 06:16:33;;;;;;;40.70;26.07;;;;;;;;;;786676;179;639861;-64
2021/03/29 06:18:58;;;;;;;38.43;24.53;;;;;;;;;;779914;179;628695;-62
2021/03/29 06:21:25;;;;;;;38.00;22.37;;;;;;;;;;780319;179;613685;-63
2021/03/29 06:23:56;;;;;;;28.60;18.10;;;;;;;;;;782813;179;619241;-63
2021/03/29 06:26:24;;;;;;;37.23;17.77;;;;;;;;;;788762;179;632507;-62
2021/03/29 06:28:49;;;;;;;154.13;67.57;;;;;;;;;;779282;179;628370;-63
2021/03/29 06:31:20;;;;;;;32.70;19.97;;;;;;;;;;781473;179;615901;-62
2021/03/29 06:33:46;;;;;;;148.87;75.17;;;;;;;;;;782401;179;642325;-62
2021/03/29 06:36:12;;;;;;;101.00;55.07;;;;;;;;;;784012;179;629482;-63
2021/03/29 06:38:38;;;;;;;55.93;29.40;;;;;;;;;;778354;178;621827;-62
2021/03/29 06:41:04;;;;;;;50.13;29.30;;;;;;;;;;783912;179;634462;-62
2021/03/29 06:43:30;;;;;;;45.90;26.53;;;;;;;;;;780203;177;632613;-62
2021/03/29 06:45:57;;;;;;;30.33;20.30;;;;;;;;;;781731;179;624367;-62
2021/03/29 06:48:26;;;;;;;39.43;21.87;;;;;;;;;;778819;179;630885;-63
2021/03/29 06:50:57;;;;;;;20.87;13.10;;;;;;;;;;787229;179;630405;-63
2021/03/29 06:53:26;;;;;;;29.43;17.30;;;;;;;;;;778218;179;895265;-63
2021/03/29 06:55:56;;;;;;;37.57;19.50;;;;;;;;;;781451;179;635677;-63
2021/03/29 06:58:18;;;;;;;29.73;16.97;;;;;;;;;;778336;179;616443;-62
2021/03/29 07:00:45;;;;;;;28.37;15.97;;;;;;;;;;786817;179;624385;-67
2021/03/29 07:03:12;;;;;;;23.03;14.17;;;;;;;;;;781993;179;637414;-63
2021/03/29 07:05:38;;;;;;;24.60;14.00;;;;;;;;;;782597;179;624828;-63
2021/03/29 07:08:04;;;;;;;18.50;12.10;;;;;;;;;;785277;179;628644;-62
2021/03/29 07:10:30;;;;;;;20.10;11.20;;;;;;;;;;779145;179;634124;-64
2021/03/29 07:12:55;;;;;;;20.27;9.77;;;;;;;;;;782410;179;637459;-62
2021/03/29 07:15:21;;;;;;;19.57;9.30;;;;;;;;;;780088;179;628370;-62
2021/03/29 07:17:47;;;;;;;24.63;11.00;;;;;;;;;;785757;176;633235;-63
2021/03/29 07:20:13;;;;;;;22.63;10.90;;;;;;;;;;779278;179;633588;-62
2021/03/29 07:22:39;;;;;;;22.87;9.23;;;;;;;;;;780372;179;624974;-62
2021/03/29 07:25:08;;;;;;;14.67;8.50;;;;;;;;;;783656;179;653797;-63
2021/03/29 07:27:36;;;;;;;15.67;8.70;;;;;;;;;;782103;179;627704;-65
2021/03/29 07:29:59;;;;;;;14.80;9.00;;;;;;;;;;779119;179;679933;-63
2021/03/29 07:32:25;;;;;;;15.67;7.80;;;;;;;;;;784924;179;631515;-63
2021/03/29 07:34:52;;;;;;;15.27;8.30;;;;;;;;;;782097;179;628934;-62
2021/03/29 07:37:23;;;;;;;10.07;7.50;;;;;;;;;;783729;179;639530;-63
2021/03/29 07:39:49;;;;;;;21.63;8.83;;;;;;;;;;777556;179;617164;-63
2021/03/29 07:42:30;;;;;;;13.53;8.13;;;;;;;;;;785630;179;643587;-64
2021/03/29 07:44:56;;;;;;;13.53;8.20;;;;;;;;;;784176;179;639735;-63
2021/03/29 07:47:28;;;;;;;14.40;7.47;;;;;;;;;;774919;179;1631252;-64
2021/03/29 07:49:58;;;;;;;14.23;7.70;;;;;;;;;;780427;179;645863;-64
2021/03/29 07:52:24;;;;;;;14.03;6.70;;;;;;;;;;784889;177;629450;-63
2021/03/29 07:54:49;;;;;;;14.30;7.30;;;;;;;;;;786868;179;636973;-64
2021/03/29 07:57:15;;;;;;;9.43;6.10;;;;;;;;;;781749;179;626850;-64
2021/03/29 07:59:41;;;;;;;13.53;7.03;;;;;;;;;;779972;179;731777;-63
2021/03/29 08:02:07;;;;;;;8.67;6.77;;;;;;;;;;782296;179;688238;-63
2021/03/29 08:04:39;;;;;;;11.10;5.60;;;;;;;;;;783603;179;625939;-63
2021/03/29 08:07:04;;;;;;;15.80;7.50;;;;;;;;;;780386;178;635146;-63
2021/03/29 08:09:47;;;;;;;11.63;6.67;;;;;;;;;;781296;179;629142;-66
2021/03/29 08:12:19;;;;;;;12.93;6.40;;;;;;;;;;775615;179;653033;-63
2021/03/29 08:14:46;;;;;;;16.60;6.87;;;;;;;;;;781951;179;631317;-62
2021/03/29 08:17:18;;;;;;;13.03;6.80;;;;;;;;;;775564;179;628348;-63
2021/03/29 08:19:43;;;;;;;9.87;7.00;;;;;;;;;;777688;179;789117;-64
2021/03/29 08:22:14;;;;;;;10.53;6.30;;;;;;;;;;773065;179;743576;-64
2021/03/29 08:24:40;;;;;;;12.43;7.20;;;;;;;;;;782882;179;617708;-62
2021/03/29 08:27:07;;;;;;;9.13;5.47;;;;;;;;;;776493;179;630636;-63
2021/03/29 08:29:36;;;;;;;7.50;6.00;;;;;;;;;;779263;179;675909;-65
2021/03/29 08:32:02;;;;;;;9.70;5.00;;;;;;;;;;775410;179;757278;-63
2021/03/29 08:34:28;;;;;;;10.00;4.40;;;;;;;;;;780299;179;677992;-64
2021/03/29 08:36:56;;;;;;;10.70;5.40;;;;;;;;;;776370;179;676935;-67
2021/03/29 08:39:22;;;;;;;9.50;4.60;;;;;;;;;;779332;179;641492;-65
2021/03/29 08:41:50;;;;;;;16.27;7.63;;;;;;;;;;782984;179;639721;-63
2021/03/29 08:44:16;;;;;;;12.60;5.40;;;;;;;;;;767006;179;2391894;-63
2021/03/29 08:46:44;;;;;;;14.60;6.90;;;;;;;;;;778807;179;622454;-63
2021/03/29 08:49:08;;;;;;;12.50;4.53;;;;;;;;;;779540;179;637802;-62
2021/03/29 08:51:33;;;;;;;8.93;5.37;;;;;;;;;;779713;179;806658;-64
2021/03/29 08:54:06;;;;;;;9.53;4.97;;;;;;;;;;777685;179;702820;-63
2021/03/29 08:56:37;;;;;;;15.83;5.50;;;;;;;;;;781143;179;637372;-63
2021/03/29 08:59:03;;;;;;;8.07;4.90;;;;;;;;;;776371;179;738509;-63
2021/03/29 09:01:29;;;;;;;10.53;6.97;;;;;;;;;;787670;176;638294;-65
2021/03/29 09:03:59;;;;;;;8.47;5.30;;;;;;;;;;777049;178;688636;-62
2021/03/29 09:06:25;;;;;;;11.53;7.53;;;;;;;;;;780926;179;640371;-67
2021/03/29 09:08:50;;;;;;;12.00;5.20;;;;;;;;;;779803;179;669804;-63
2021/03/29 09:11:16;;;;;;;11.23;4.80;;;;;;;;;;779051;179;625880;-63
2021/03/29 09:13:42;;;;;;;7.67;5.00;;;;;;;;;;776196;179;630630;-65
2021/03/29 09:16:08;;;;;;;9.43;4.70;;;;;;;;;;783247;179;629926;-66
2021/03/29 09:18:36;;;;;;;7.13;4.30;;;;;;;;;;776959;179;724202;-65
2021/03/29 09:21:02;;;;;;;11.77;4.43;;;;;;;;;;780679;179;621530;-65
2021/03/29 09:23:32;;;;;;;12.03;5.60;;;;;;;;;;779017;179;690710;-64
2021/03/29 09:25:57;;;;;;;9.77;4.90;;;;;;;;;;780190;179;907853;-64
2021/03/29 09:28:33;;;;;;;24.25;11.15;;;;;;;;;;778675;179;667532;-64
2021/03/29 09:30:49;;;;;;;15.53;7.40;;;;;;;;;;768897;179;1838213;-64
2021/03/29 09:33:15;;;;;;;8.03;5.50;;;;;;;;;;782850;179;621915;-65
2021/03/29 09:35:41;;;;;;;8.00;4.67;;;;;;;;;;776544;179;631293;-64
2021/03/29 09:38:07;;;;;;;11.10;5.90;;;;;;;;;;778387;179;632509;-63
2021/03/29 09:40:33;;;;;;;13.17;5.10;;;;;;;;;;775889;179;636788;-64
2021/03/29 09:42:59;;;;;;;6.03;5.00;;;;;;;;;;776060;176;672904;-63
2021/03/29 09:45:25;;;;;;;8.10;5.03;;;;;;;;;;774400;179;657593;-65
2021/03/29 09:47:56;;;;;;;9.67;6.40;;;;;;;;;;777780;179;701064;-64
2021/03/29 09:50:22;;;;;;;15.13;5.33;;;;;;;;;;777148;179;1137610;-64
2021/03/29 09:52:49;;;;;;;17.67;5.33;;;;;;;;;;779458;179;692561;-63
2021/03/29 09:55:14;;;;;;;8.13;5.40;;;;;;;;;;778949;179;632029;-64
2021/03/29 09:57:41;;;;;;;13.20;6.20;;;;;;;;;;781236;179;627582;-63
2021/03/29 10:00:10;;;;;;;7.10;4.60;;;;;;;;;;778116;176;625736;-67
2021/03/29 10:02:36;;;;;;;7.20;4.27;;;;;;;;;;777978;179;701945;-64
2021/03/29 10:05:02;;;;;;;18.70;5.73;;;;;;;;;;782157;179;630449;-63
2021/03/29 10:07:28;;;;;;;8.30;4.80;;;;;;;;;;781938;179;630669;-65
2021/03/29 10:09:57;;;;;;;10.00;5.60;;;;;;;;;;780493;179;631337;-64
2021/03/29 10:12:24;;;;;;;10.20;6.23;;;;;;;;;;780310;179;625823;-63
2021/03/29 10:14:50;;;;;;;24.73;5.83;;;;;;;;;;784310;177;638505;-64
2021/03/29 10:17:16;;;;;;;6.93;4.47;;;;;;;;;;780929;175;618941;-63
2021/03/29 10:19:42;;;;;;;19.03;5.57;;;;;;;;;;781321;179;629285;-65
2021/03/29 10:22:11;;;;;;;11.07;5.90;;;;;;;;;;778467;179;630384;-63
2021/03/29 10:24:34;;;;;;;10.37;5.57;;;;;;;;;;785826;179;628399;-65
2021/03/29 10:27:00;;;;;;;12.07;5.80;;;;;;;;;;781131;179;625427;-63
2021/03/29 10:29:42;;;;;;;19.10;5.85;;;;;;;;;;780492;179;679037;-64
2021/03/29 10:32:11;;;;;;;15.23;6.90;;;;;;;;;;781922;179;620133;-62
2021/03/29 10:34:38;;;;;;;8.63;5.40;;;;;;;;;;786550;179;623546;-63
2021/03/29 10:37:03;;;;;;;11.93;5.87;;;;;;;;;;779052;179;837181;-65
2021/03/29 10:39:29;;;;;;;8.70;5.83;;;;;;;;;;782620;179;628018;-63
2021/03/29 10:41:55;;;;;;;15.53;5.93;;;;;;;;;;778773;179;631763;-64
2021/03/29 10:44:20;;;;;;;11.53;6.00;;;;;;;;;;784292;179;642135;-63
2021/03/29 10:46:46;;;;;;;9.30;6.00;;;;;;;;;;779441;179;622931;-65
2021/03/29 10:49:12;;;;;;;13.33;5.50;;;;;;;;;;781808;179;653515;-63
2021/03/29 10:51:38;;;;;;;8.60;5.43;;;;;;;;;;785050;179;625136;-64
2021/03/29 10:54:04;;;;;;;13.60;6.43;;;;;;;;;;779124;179;641949;-63
2021/03/29 10:56:30;;;;;;;11.40;5.47;;;;;;;;;;782610;179;633597;-66
2021/03/29 10:58:56;;;;;;;13.80;5.63;;;;;;;;;;783621;179;719109;-63
2021/03/29 11:01:22;;;;;;;9.88;5.35;;;;;;;;;;781400;179;624388;-64
2021/03/29 11:03:47;;;;;;;11.60;5.47;;;;;;;;;;778075;179;632934;-65
2021/03/29 11:06:13;;;;;;;12.27;5.20;;;;;;;;;;782740;179;634287;-64
2021/03/29 11:08:39;;;;;;;13.07;5.03;;;;;;;;;;789994;176;625124;-64
2021/03/29 11:11:05;;;;;;;12.70;6.33;;;;;;;;;;780586;179;631574;-65
2021/03/29 11:13:31;;;;;;;8.73;5.20;;;;;;;;;;778024;179;630133;-64
2021/03/29 11:15:58;;;;;;;11.25;5.45;;;;;;;;;;787769;179;621442;-63
2021/03/29 11:18:23;;;;;;;14.87;6.30;;;;;;;;;;781397;179;683531;-65
2021/03/29 11:20:49;;;;;;;12.97;6.33;;;;;;;;;;780535;179;720420;-63
2021/03/29 11:23:15;;;;;;;9.20;5.83;;;;;;;;;;783922;179;624489;-65
2021/03/29 11:25:41;;;;;;;10.20;6.90;;;;;;;;;;783725;177;620966;-64
2021/03/29 11:28:07;;;;;;;13.10;6.20;;;;;;;;;;783731;179;617281;-63
2021/03/29 11:30:33;;;;;;;9.20;5.53;;;;;;;;;;784180;179;630773;-63
2021/03/29 11:32:58;;;;;;;9.23;5.80;;;;;;;;;;783580;179;629349;-63
2021/03/29 11:35:24;;;;;;;11.20;5.90;;;;;;;;;;778598;179;619744;-63
2021/03/29 11:37:50;;;;;;;10.80;5.80;;;;;;;;;;783161;179;632478;-62
2021/03/29 11:40:16;;;;;;;13.53;6.03;;;;;;;;;;785319;179;623114;-64
2021/03/29 11:42:42;;;;;;;8.53;5.20;;;;;;;;;;783845;179;624248;-64
2021/03/29 11:45:08;;;;;;;8.10;5.13;;;;;;;;;;780018;179;636573;-63
2021/03/29 11:47:34;;;;;;;14.33;5.80;;;;;;;;;;785099;179;626658;-63
2021/03/29 11:50:00;;;;;;;10.27;5.80;;;;;;;;;;777926;179;640722;-64
2021/03/29 11:52:25;;;;;;;12.90;5.00;;;;;;;;;;782041;179;633146;-63
2021/03/29 11:54:51;;;;;;;14.27;6.80;;;;;;;;;;783213;179;613629;-63
2021/03/29 11:57:18;;;;;;;12.43;6.50;;;;;;;;;;782215;179;648005;-63
2021/03/29 11:59:48;;;;;;;8.80;5.83;;;;;;;;;;778508;179;618776;-66
2021/03/29 12:02:14;;;;;;;11.00;5.27;;;;;;;;;;783155;179;636784;-63
2021/03/29 12:04:41;;;;;;;11.47;4.70;;;;;;;;;;792355;176;623778;-62
2021/03/29 12:07:09;;;;;;;22.27;5.30;;;;;;;;;;777565;179;696189;-63
2021/03/29 12:09:42;;;;;;;9.30;4.70;;;;;;;;;;781094;179;626131;-63
2021/03/29 12:12:04;;;;;;;9.17;5.30;;;;;;;;;;780315;179;630143;-64
2021/03/29 12:14:28;;;;;;;13.43;8.10;;;;;;;;;;780224;179;622621;-63
2021/03/29 12:16:53;;;;;;;11.30;5.90;;;;;;;;;;776484;179;640224;-63
2021/03/29 12:19:19;;;;;;;13.63;4.80;;;;;;;;;;782339;179;629335;-64
2021/03/29 12:21:45;;;;;;;10.27;5.40;;;;;;;;;;779323;178;619074;-63
2021/03/29 12:24:12;;;;;;;14.00;4.77;;;;;;;;;;780921;179;643598;-63
2021/03/29 12:26:37;;;;;;;10.05;5.93;;;;;;;;;;778335;179;690454;-62
2021/03/29 12:29:03;;;;;;;11.53;5.93;;;;;;;;;;784923;179;624190;-63
2021/03/29 12:31:30;;;;;;;14.97;6.70;;;;;;;;;;779538;179;680879;-64
2021/03/29 12:33:54;;;;;;;15.15;6.97;;;;;;;;;;781620;179;671284;-63
2021/03/29 12:36:21;;;;;;;9.40;4.90;;;;;;;;;;781976;179;631165;-65
2021/03/29 12:38:55;;;;;;;12.17;5.50;;;;;;;;;;783827;177;628568;-62
2021/03/29 12:41:17;;;;;;;15.60;5.40;;;;;;;;;;780119;179;614615;-64
2021/03/29 12:43:46;;;;;;;9.13;5.77;;;;;;;;;;783272;178;639137;-65
2021/03/29 12:46:10;;;;;;;14.27;6.00;;;;;;;;;;786262;179;629610;-63
2021/03/29 12:48:38;;;;;;;10.10;6.13;;;;;;;;;;760469;179;4952301;-64
2021/03/29 12:51:02;;;;;;;9.30;5.40;;;;;;;;;;781111;179;629738;-63
2021/03/29 12:53:29;;;;;;;10.03;4.60;;;;;;;;;;782644;179;635876;-64
2021/03/29 12:55:53;;;;;;;12.17;4.73;;;;;;;;;;782418;179;644312;-64
2021/03/29 12:58:19;;;;;;;10.53;5.20;;;;;;;;;;780796;179;631604;-64
2021/03/29 13:00:46;;;;;;;9.90;5.03;;;;;;;;;;785729;179;619043;-63
2021/03/29 13:03:11;;;;;;;14.67;6.03;;;;;;;;;;780623;179;630791;-63
2021/03/29 13:05:47;;;;;;;8.43;5.77;;;;;;;;;;782133;179;626295;-63
2021/03/29 13:08:07;;;;;;;25.17;5.97;;;;;;;;;;778004;179;654650;-63
2021/03/29 13:10:48;;;;;;;10.30;6.07;;;;;;;;;;787740;179;641411;-63
2021/03/29 13:13:05;;;;;;;11.97;6.53;;;;;;;;;;776230;179;956818;-63
2021/03/29 13:15:31;;;;;;;7.93;4.37;;;;;;;;;;781563;179;625761;-63
2021/03/29 13:17:57;;;;;;;22.10;7.43;;;;;;;;;;779426;179;633366;-63
2021/03/29 13:20:23;;;;;;;12.30;6.13;;;;;;;;;;788278;176;625546;-63
2021/03/29 13:22:49;;;;;;;10.40;5.93;;;;;;;;;;779562;179;630783;-64
2021/03/29 13:25:15;;;;;;;14.47;5.77;;;;;;;;;;780623;179;614649;-63
2021/03/29 13:27:41;;;;;;;11.80;5.13;;;;;;;;;;783921;179;634977;-63
2021/03/29 13:30:07;;;;;;;11.30;5.47;;;;;;;;;;778785;179;649551;-63
2021/03/29 13:32:33;;;;;;;14.13;6.10;;;;;;;;;;782099;179;616488;-62
2021/03/29 13:34:59;;;;;;;9.50;6.43;;;;;;;;;;780829;179;1142030;-63
2021/03/29 13:37:25;;;;;;;14.93;6.00;;;;;;;;;;783333;179;629000;-63
2021/03/29 13:39:52;;;;;;;14.83;6.27;;;;;;;;;;780164;179;631355;-63
2021/03/29 13:42:16;;;;;;;8.93;5.57;;;;;;;;;;784610;179;623871;-62
2021/03/29 13:44:42;;;;;;;9.27;5.60;;;;;;;;;;778323;179;631189;-63
2021/03/29 13:47:08;;;;;;;18.03;7.00;;;;;;;;;;780230;179;626641;-63
2021/03/29 13:49:34;;;;;;;9.40;6.80;;;;;;;;;;780931;177;627583;-63
2021/03/29 13:52:00;;;;;;;16.97;6.63;;;;;;;;;;786517;179;626515;-63
2021/03/29 13:54:25;;;;;;;12.20;6.37;;;;;;;;;;779380;179;640182;-63
2021/03/29 13:56:51;;;;;;;28.47;7.50;;;;;;;;;;782571;179;620482;-63
2021/03/29 13:59:17;;;;;;;19.77;6.90;;;;;;;;;;784493;179;617142;-64
2021/03/29 14:01:43;;;;;;;13.70;7.17;;;;;;;;;;782437;179;632670;-63
2021/03/29 14:04:13;;;;;;;16.17;8.32;;;;;;;;;;783298;179;628288;-63
2021/03/29 14:06:39;;;;;;;20.47;7.30;;;;;;;;;;779885;179;629511;-63